createdAt,value
2022-10-04T00:00:25.817Z,3.40
2022-10-04T00:02:54.790Z,3.58
2022-10-04T00:05:24.353Z,3.75
2022-10-04T00:07:53.980Z,3.10
2022-10-04T00:10:23.150Z,2.75
2022-10-04T00:12:56.749Z,2.90
2022-10-04T00:15:26.786Z,3.30
2022-10-04T00:18:03.057Z,3.30
2022-10-04T00:20:53.485Z,4.10
2022-10-04T00:23:39.010Z,3.08
2022-10-04T00:26:15.430Z,3.03
2022-10-04T00:28:44.338Z,3.40
2022-10-04T00:31:14.839Z,2.75
2022-10-04T00:33:43.621Z,2.97
2022-10-04T00:36:25.985Z,2.90
2022-10-04T00:39:05.519Z,2.50
2022-10-04T00:41:35.775Z,2.80
2022-10-04T00:44:04.584Z,2.90
2022-10-04T00:46:32.176Z,3.00
2022-10-04T00:49:04.535Z,3.20
2022-10-04T00:51:49.281Z,2.90
2022-10-04T00:54:23.201Z,2.72
2022-10-04T00:56:54.586Z,2.97
2022-10-04T00:59:30.767Z,2.72
2022-10-04T01:02:18.473Z,3.85
2022-10-04T01:05:04.310Z,3.53
2022-10-04T01:07:38.155Z,2.78
2022-10-04T01:10:11.792Z,3.30
2022-10-04T01:12:39.035Z,2.92
2022-10-04T01:15:06.417Z,3.00
2022-10-04T01:17:33.666Z,2.90
2022-10-04T01:20:00.957Z,2.85
2022-10-04T01:22:31.006Z,3.00
2022-10-04T01:24:58.306Z,3.15
2022-10-04T01:27:35.169Z,3.10
2022-10-04T01:30:04.070Z,3.30
2022-10-04T01:32:31.962Z,3.05
2022-10-04T01:34:59.606Z,3.30
2022-10-04T01:37:28.250Z,3.70
2022-10-04T01:39:55.946Z,3.47
2022-10-04T01:42:53.143Z,3.38
2022-10-04T01:45:24.983Z,3.58
2022-10-04T01:47:52.822Z,4.10
2022-10-04T01:50:31.797Z,3.95
2022-10-04T01:53:13.437Z,3.70
2022-10-04T01:55:42.673Z,4.35
2022-10-04T01:58:17.051Z,3.88
2022-10-04T02:00:48.839Z,4.10
2022-10-04T02:03:19.097Z,3.97
2022-10-04T02:05:51.172Z,3.80
2022-10-04T02:08:19.025Z,4.80
2022-10-04T02:10:46.842Z,4.07
2022-10-04T02:13:21.756Z,3.92
2022-10-04T02:15:50.018Z,3.80
2022-10-04T02:18:18.978Z,4.40
2022-10-04T02:20:47.509Z,3.80
2022-10-04T02:23:17.140Z,3.70
2022-10-04T02:25:44.365Z,4.13
2022-10-04T02:28:13.385Z,4.28
2022-10-04T02:30:42.174Z,3.78
2022-10-04T02:33:10.593Z,3.78
2022-10-04T02:35:45.725Z,3.92
2022-10-04T02:38:23.609Z,3.70
2022-10-04T02:41:03.402Z,3.95
2022-10-04T02:43:40.284Z,3.85
2022-10-04T02:46:22.602Z,3.78
2022-10-04T02:48:57.416Z,3.95
2022-10-04T02:52:03.162Z,4.03
2022-10-04T02:54:37.945Z,3.30
2022-10-04T02:57:05.792Z,3.97
2022-10-04T02:59:35.493Z,3.97
2022-10-04T03:02:03.317Z,4.35
2022-10-04T03:04:36.305Z,4.20
2022-10-04T03:07:05.240Z,4.55
2022-10-04T03:09:33.138Z,4.40
2022-10-04T03:12:00.608Z,4.60
2022-10-04T03:14:28.588Z,4.20
2022-10-04T03:16:57.938Z,3.95
2022-10-04T03:19:27.007Z,4.47
2022-10-04T03:21:56.062Z,4.75
2022-10-04T03:24:25.858Z,3.80
2022-10-04T03:26:54.400Z,4.43
2022-10-04T03:29:23.156Z,4.30
2022-10-04T03:31:52.305Z,3.92
2022-10-04T03:34:27.001Z,4.00
2022-10-04T03:36:56.357Z,5.45
2022-10-04T03:39:33.598Z,4.90
2022-10-04T03:42:06.141Z,4.60
2022-10-04T03:44:33.628Z,4.50
2022-10-04T03:47:01.316Z,4.30
2022-10-04T03:49:38.231Z,4.15
2022-10-04T03:52:06.038Z,4.63
2022-10-04T03:54:34.167Z,4.20
2022-10-04T03:57:02.106Z,5.53
2022-10-04T03:59:29.744Z,4.25
2022-10-04T04:02:15.846Z,4.15
2022-10-04T04:04:50.489Z,4.05
2022-10-04T04:07:23.842Z,4.05
2022-10-04T04:10:00.648Z,3.85
2022-10-04T04:12:36.067Z,4.20
2022-10-04T04:15:07.289Z,3.70
2022-10-04T04:17:37.068Z,3.95
2022-10-04T04:20:07.900Z,4.20
2022-10-04T04:22:36.132Z,4.13
2022-10-04T04:25:05.682Z,4.05
2022-10-04T04:27:35.540Z,3.75
2022-10-04T04:30:04.164Z,4.07
2022-10-04T04:32:34.202Z,4.00
2022-10-04T04:35:08.592Z,3.60
2022-10-04T04:37:36.208Z,3.70
2022-10-04T04:40:34.101Z,4.07
2022-10-04T04:43:02.263Z,3.60
2022-10-04T04:45:31.299Z,3.70
2022-10-04T04:48:00.099Z,3.50
2022-10-04T04:50:35.747Z,3.38
2022-10-04T04:53:05.986Z,2.72
2022-10-04T04:55:56.299Z,2.90
2022-10-04T04:58:25.055Z,2.72
2022-10-04T05:00:57.241Z,3.10
2022-10-04T05:03:24.598Z,2.95
2022-10-04T05:05:51.981Z,2.78
2022-10-04T05:08:23.518Z,3.10
2022-10-04T05:10:55.878Z,3.10
2022-10-04T05:13:23.545Z,3.30
2022-10-04T05:15:53.416Z,2.88
2022-10-04T05:18:31.777Z,3.15
2022-10-04T05:21:03.717Z,3.13
2022-10-04T05:23:31.151Z,3.05
2022-10-04T05:26:00.431Z,3.08
2022-10-04T05:28:28.149Z,3.00
2022-10-04T05:31:07.674Z,3.20
2022-10-04T05:33:40.649Z,3.30
2022-10-04T05:36:11.068Z,2.80
2022-10-04T05:38:47.483Z,3.20
2022-10-04T05:41:34.970Z,2.75
2022-10-04T05:44:02.594Z,2.95
2022-10-04T05:46:30.969Z,2.80
2022-10-04T05:48:58.251Z,2.92
2022-10-04T05:51:28.775Z,2.78
2022-10-04T05:53:57.985Z,2.80
2022-10-04T05:56:25.819Z,2.60
2022-10-04T05:59:02.247Z,2.88
2022-10-04T06:01:38.618Z,2.53
2022-10-04T06:04:11.963Z,2.70
2022-10-04T06:06:50.068Z,2.80
2022-10-04T06:09:26.223Z,2.30
2022-10-04T06:12:07.925Z,2.33
2022-10-04T06:14:55.020Z,2.85
2022-10-04T06:17:41.410Z,2.38
2022-10-04T06:20:08.694Z,2.58
2022-10-04T06:22:43.556Z,2.70
2022-10-04T06:25:15.080Z,2.45
2022-10-04T06:27:46.276Z,2.60
2022-10-04T06:30:18.313Z,2.42
2022-10-04T06:32:51.365Z,2.38
2022-10-04T06:35:45.001Z,2.90
2022-10-04T06:38:22.305Z,3.35
2022-10-04T06:40:58.329Z,2.97
2022-10-04T06:43:44.978Z,3.03
2022-10-04T06:46:32.595Z,2.90
2022-10-04T06:49:20.145Z,3.00
2022-10-04T06:51:58.150Z,2.58
2022-10-04T06:54:35.635Z,2.45
2022-10-04T06:57:22.377Z,2.95
2022-10-04T06:59:52.739Z,2.85
2022-10-04T07:02:23.194Z,3.13
2022-10-04T07:05:09.617Z,2.42
2022-10-04T07:07:39.734Z,2.35
2022-10-04T07:10:10.154Z,3.38
2022-10-04T07:12:40.075Z,3.13
2022-10-04T07:15:14.697Z,2.33
2022-10-04T07:17:44.098Z,2.60
2022-10-04T07:20:32.332Z,2.40
2022-10-04T07:23:02.279Z,2.55
2022-10-04T07:25:32.862Z,2.17
2022-10-04T07:28:24.683Z,2.30
2022-10-04T07:30:56.670Z,1.88
2022-10-04T07:33:26.039Z,2.50
2022-10-04T07:35:55.595Z,2.35
2022-10-04T07:38:27.306Z,2.30
2022-10-04T07:41:08.497Z,2.17
2022-10-04T07:44:02.043Z,2.60
2022-10-04T07:46:29.300Z,2.20
2022-10-04T07:48:57.539Z,2.38
2022-10-04T07:51:35.403Z,2.42
2022-10-04T07:54:17.906Z,2.67
2022-10-04T07:56:50.945Z,1.75
2022-10-04T07:59:21.161Z,2.85
2022-10-04T08:02:03.249Z,2.33
2022-10-04T08:04:30.552Z,2.10
2022-10-04T08:07:09.232Z,2.50
2022-10-04T08:09:44.208Z,2.38
2022-10-04T08:12:27.907Z,2.78
2022-10-04T08:15:01.917Z,2.50
2022-10-04T08:17:32.887Z,2.53
2022-10-04T08:20:09.384Z,2.65
2022-10-04T08:22:55.905Z,2.50
2022-10-04T08:25:29.165Z,2.45
2022-10-04T08:28:31.883Z,2.60
2022-10-04T08:31:08.579Z,2.40
2022-10-04T08:33:38.690Z,2.50
2022-10-04T08:36:24.727Z,2.42
2022-10-04T08:38:57.429Z,2.20
2022-10-04T08:41:37.334Z,2.80
2022-10-04T08:44:32.857Z,2.40
2022-10-04T08:47:22.133Z,2.17
2022-10-04T08:49:49.672Z,2.80
2022-10-04T08:52:19.718Z,2.50
2022-10-04T08:54:59.347Z,2.33
2022-10-04T08:57:43.462Z,2.42
2022-10-04T09:00:26.564Z,2.40
2022-10-04T09:02:59.974Z,2.75
2022-10-04T09:05:47.520Z,2.78
2022-10-04T09:08:33.213Z,2.53
2022-10-04T09:11:09.354Z,2.83
2022-10-04T09:13:55.366Z,2.55
2022-10-04T09:16:42.039Z,2.50
2022-10-04T09:19:23.106Z,3.10
2022-10-04T09:21:57.091Z,3.67
2022-10-04T09:24:30.403Z,3.28
2022-10-04T09:27:13.470Z,2.63
2022-10-04T09:29:40.662Z,2.58
2022-10-04T09:32:27.815Z,2.70
2022-10-04T09:35:10.508Z,3.28
2022-10-04T09:38:16.347Z,2.67
2022-10-04T09:40:51.947Z,2.15
2022-10-04T09:43:41.122Z,2.20
2022-10-04T09:46:16.303Z,2.25
2022-10-04T09:48:56.352Z,2.33
2022-10-04T09:51:26.490Z,2.45
2022-10-04T09:54:03.070Z,2.58
2022-10-04T09:56:50.360Z,2.22
2022-10-04T09:59:23.691Z,2.10
2022-10-04T10:01:51.252Z,2.45
2022-10-04T10:04:36.994Z,2.45
2022-10-04T10:07:04.225Z,2.10
2022-10-04T10:09:53.055Z,2.47
2022-10-04T10:12:57.679Z,2.17
2022-10-04T10:15:36.655Z,2.60
2022-10-04T10:18:22.627Z,2.47
2022-10-04T10:20:49.881Z,2.47
2022-10-04T10:23:20.138Z,2.35
2022-10-04T10:26:04.144Z,2.40
2022-10-04T10:28:37.311Z,2.30
2022-10-04T10:31:16.472Z,2.38
2022-10-04T10:34:02.013Z,2.70
2022-10-04T10:36:44.520Z,2.78
2022-10-04T10:39:24.108Z,2.85
2022-10-04T10:42:03.629Z,2.72
2022-10-04T10:44:49.477Z,2.75
2022-10-04T10:47:36.006Z,3.10
2022-10-04T10:50:07.753Z,2.30
2022-10-04T10:52:41.265Z,2.55
2022-10-04T10:55:11.555Z,2.10
2022-10-04T10:57:57.816Z,2.40
2022-10-04T11:00:54.174Z,2.42
2022-10-04T11:03:32.596Z,2.40
2022-10-04T11:06:18.642Z,2.30
2022-10-04T11:08:51.907Z,2.22
2022-10-04T11:11:32.709Z,2.38
2022-10-04T11:13:59.915Z,2.53
2022-10-04T11:16:47.618Z,2.42
2022-10-04T11:19:33.993Z,2.20
2022-10-04T11:22:10.140Z,1.80
2022-10-04T11:24:55.542Z,1.90
2022-10-04T11:27:29.007Z,1.75
2022-10-04T11:30:15.099Z,2.60
2022-10-04T11:33:02.231Z,1.80
2022-10-04T11:35:48.456Z,2.00
2022-10-04T11:38:27.634Z,1.70
2022-10-04T11:41:14.831Z,1.70
2022-10-04T11:43:42.086Z,2.60
2022-10-04T11:46:14.350Z,2.30
2022-10-04T11:49:00.240Z,2.08
2022-10-04T11:51:47.980Z,2.10
2022-10-04T11:54:24.448Z,2.20
2022-10-04T11:57:06.700Z,2.10
2022-10-04T11:59:44.685Z,2.20
2022-10-04T12:02:32.259Z,3.60
2022-10-04T12:05:08.440Z,2.00
2022-10-04T12:07:36.092Z,2.03
2022-10-04T12:10:21.856Z,1.80
2022-10-04T12:12:54.904Z,1.70
2022-10-04T12:15:36.263Z,1.70
2022-10-04T12:18:12.608Z,2.28
2022-10-04T12:21:07.155Z,1.80
2022-10-04T12:23:42.521Z,1.58
2022-10-04T12:26:32.938Z,2.08
2022-10-04T12:29:18.996Z,2.00
2022-10-04T12:31:46.272Z,1.98
2022-10-04T12:34:32.174Z,1.60
2022-10-04T12:37:15.695Z,1.83
2022-10-04T12:39:45.937Z,1.77
2022-10-04T12:42:32.876Z,1.80
2022-10-04T12:45:13.185Z,2.80
2022-10-04T12:47:48.271Z,2.72
2022-10-04T12:50:16.019Z,2.13
2022-10-04T12:52:51.708Z,2.08
2022-10-04T12:55:41.910Z,3.17
2022-10-04T12:58:19.673Z,2.80
2022-10-04T13:00:48.347Z,2.10
2022-10-04T13:03:21.707Z,2.20
2022-10-04T13:05:49.003Z,1.90
2022-10-04T13:08:28.322Z,2.58
2022-10-04T13:11:14.075Z,2.47
2022-10-04T13:14:00.841Z,2.60
2022-10-04T13:19:34.438Z,2.40
2022-10-04T13:22:44.020Z,2.40
2022-10-04T13:25:22.831Z,2.20
2022-10-04T13:27:53.253Z,1.95
2022-10-04T13:30:28.590Z,2.20
2022-10-04T13:32:56.845Z,1.98
2022-10-04T13:35:24.152Z,2.15
2022-10-04T13:38:10.050Z,2.17
2022-10-04T13:40:40.251Z,2.55
2022-10-04T13:43:27.847Z,1.92
2022-10-04T13:46:07.651Z,2.17
2022-10-04T13:48:54.484Z,2.40
2022-10-04T13:51:29.730Z,2.05
2022-10-04T13:54:34.292Z,2.20
2022-10-04T13:57:20.617Z,1.98
2022-10-04T13:59:55.049Z,2.30
2022-10-04T14:02:22.508Z,1.80
2022-10-04T14:05:05.827Z,2.08
2022-10-04T14:07:39.775Z,2.25
2022-10-04T14:10:25.858Z,2.33
2022-10-04T14:13:03.917Z,2.20
2022-10-04T14:15:34.283Z,2.30
2022-10-04T14:18:14.818Z,2.53
2022-10-04T14:21:03.194Z,2.10
2022-10-04T14:24:06.079Z,2.72
2022-10-04T14:26:49.295Z,2.10
2022-10-04T14:29:31.609Z,1.92
2022-10-04T14:32:09.837Z,2.00
2022-10-04T14:34:57.193Z,1.98
2022-10-04T14:37:27.210Z,1.90
2022-10-04T14:39:57.497Z,2.30
2022-10-04T14:42:36.234Z,2.00
2022-10-04T14:45:04.497Z,2.05
2022-10-04T14:47:34.778Z,1.92
2022-10-04T14:50:07.969Z,2.10
2022-10-04T14:52:44.685Z,2.55
2022-10-04T14:55:31.234Z,2.25
2022-10-04T14:57:58.486Z,2.20
2022-10-04T15:00:49.571Z,1.88
2022-10-04T15:03:28.937Z,2.13
2022-10-04T15:06:06.858Z,2.33
2022-10-04T15:08:46.138Z,1.90
2022-10-04T15:11:35.506Z,2.38
2022-10-04T15:14:05.525Z,2.40
2022-10-04T15:16:55.124Z,2.03
2022-10-04T15:19:22.367Z,1.90
2022-10-04T15:22:06.295Z,2.00
2022-10-04T15:24:52.838Z,2.10
2022-10-04T15:27:20.069Z,2.00
2022-10-04T15:29:53.409Z,1.75
2022-10-04T15:32:24.393Z,2.15
2022-10-04T15:35:10.189Z,1.88
2022-10-04T15:37:52.534Z,1.90
2022-10-04T15:40:22.640Z,1.92
2022-10-04T15:42:59.681Z,2.30
2022-10-04T15:45:48.071Z,2.35
2022-10-04T15:48:33.000Z,2.10
2022-10-04T15:51:06.430Z,2.55
2022-10-04T15:53:39.810Z,2.78
2022-10-04T15:56:27.307Z,2.38
2022-10-04T15:59:19.168Z,2.70
2022-10-04T16:02:03.398Z,2.60
2022-10-04T16:04:37.038Z,2.95
2022-10-04T16:07:07.146Z,2.63
2022-10-04T16:09:40.427Z,3.10
2022-10-04T16:12:07.740Z,2.60
2022-10-04T16:14:38.978Z,2.72
2022-10-04T16:19:45.458Z,3.55
2022-10-04T16:22:20.152Z,2.80
2022-10-04T16:24:51.950Z,2.83
2022-10-04T16:27:20.567Z,2.60
2022-10-04T16:30:25.511Z,2.50
2022-10-04T16:33:02.007Z,2.60
2022-10-04T16:35:34.871Z,3.33
2022-10-04T16:38:20.747Z,3.40
2022-10-04T16:40:59.804Z,2.80
2022-10-04T16:43:28.809Z,3.50
2022-10-04T16:46:14.928Z,3.20
2022-10-04T16:48:42.193Z,3.70
2022-10-04T16:51:35.819Z,3.10
2022-10-04T16:54:31.809Z,2.53
2022-10-04T16:57:00.801Z,2.42
2022-10-04T16:59:41.925Z,2.70
2022-10-04T17:02:18.046Z,2.80
2022-10-04T17:04:55.708Z,2.67
2022-10-04T17:07:25.903Z,3.00
2022-10-04T17:09:56.960Z,2.75
2022-10-04T17:12:37.001Z,2.85
2022-10-04T17:15:16.232Z,2.83
2022-10-04T17:18:09.800Z,3.22
2022-10-04T17:20:40.163Z,3.10
2022-10-04T17:23:13.653Z,3.30
2022-10-04T17:25:40.921Z,3.45
2022-10-04T17:28:09.962Z,3.53
2022-10-04T17:30:59.824Z,3.38
2022-10-04T17:33:39.155Z,3.55
2022-10-04T17:36:14.195Z,3.15
2022-10-04T17:38:48.025Z,3.35
2022-10-04T17:41:15.356Z,3.78
2022-10-04T17:44:00.823Z,3.90
2022-10-04T17:46:46.569Z,3.38
2022-10-04T17:49:42.023Z,3.55
2022-10-04T17:52:34.786Z,3.88
2022-10-04T17:55:19.311Z,3.40
2022-10-04T17:58:13.390Z,3.80
2022-10-04T18:00:49.423Z,3.40
2022-10-04T18:03:32.853Z,4.20
2022-10-04T18:06:03.864Z,3.95
2022-10-04T18:08:34.243Z,3.22
2022-10-04T18:11:06.287Z,3.50
2022-10-04T18:13:44.623Z,3.53
2022-10-04T18:16:31.984Z,4.13
2022-10-04T18:19:19.251Z,4.35
2022-10-04T18:21:50.132Z,4.22
2022-10-04T18:24:17.363Z,4.22
2022-10-04T18:27:06.554Z,3.90
2022-10-04T18:29:38.049Z,3.50
2022-10-04T18:32:23.963Z,3.13
2022-10-04T18:34:55.299Z,3.42
2022-10-04T18:37:38.862Z,3.20
2022-10-04T18:40:11.933Z,2.85
2022-10-04T18:42:42.030Z,3.10
2022-10-04T18:45:28.520Z,2.70
2022-10-04T18:47:56.575Z,2.80
2022-10-04T18:50:43.713Z,3.08
2022-10-04T18:53:49.284Z,2.80
2022-10-04T18:56:17.956Z,3.20
2022-10-04T18:59:09.219Z,2.80
2022-10-04T19:02:00.665Z,18.08
2022-10-04T19:04:48.648Z,2.80
2022-10-04T19:07:18.357Z,2.78
2022-10-04T19:10:02.023Z,3.05
2022-10-04T19:12:29.249Z,2.90
2022-10-04T19:15:15.164Z,3.30
2022-10-04T19:17:45.859Z,3.40
2022-10-04T19:20:26.601Z,3.38
2022-10-04T19:23:03.194Z,3.55
2022-10-04T19:25:33.504Z,3.45
2022-10-04T19:28:04.446Z,3.37
2022-10-04T19:30:42.487Z,3.50
2022-10-04T19:33:15.893Z,3.30
2022-10-04T19:35:53.440Z,3.47
2022-10-04T19:38:26.853Z,3.38
2022-10-04T19:41:00.493Z,3.22
2022-10-04T19:43:47.979Z,3.33
2022-10-04T19:46:35.047Z,3.13
2022-10-04T19:49:02.763Z,3.10
2022-10-04T19:51:51.432Z,3.83
2022-10-04T19:54:22.163Z,3.67
2022-10-04T19:56:50.296Z,3.20
2022-10-04T19:59:19.118Z,3.40
2022-10-04T20:01:46.999Z,3.30
2022-10-04T20:04:34.419Z,3.33
2022-10-04T20:07:03.333Z,3.60
2022-10-04T20:09:41.314Z,3.30
2022-10-04T20:12:28.667Z,3.58
2022-10-04T20:15:14.933Z,6.30
2022-10-04T20:17:43.119Z,3.58
2022-10-04T20:20:10.843Z,3.20
2022-10-04T20:22:50.228Z,3.65
2022-10-04T20:25:36.272Z,3.28
2022-10-04T20:28:03.682Z,3.40
2022-10-04T20:30:52.331Z,3.85
2022-10-04T20:33:35.018Z,5.05
2022-10-04T20:36:09.299Z,8.07
2022-10-04T20:38:45.873Z,10.05
2022-10-04T20:41:49.895Z,10.43
2022-10-04T20:44:40.230Z,9.45
2022-10-04T20:47:19.453Z,7.57
2022-10-04T20:49:46.852Z,5.55
2022-10-04T20:52:15.676Z,4.80
2022-10-04T20:54:52.378Z,4.43
2022-10-04T20:57:24.010Z,4.07
2022-10-04T20:59:54.670Z,4.63
2022-10-04T21:02:23.442Z,4.80
2022-10-04T21:04:53.591Z,4.35
2022-10-04T21:07:22.330Z,3.60
2022-10-04T21:09:49.907Z,3.47
2022-10-04T21:12:32.480Z,3.92
2022-10-04T21:15:07.156Z,3.60
2022-10-04T21:17:36.016Z,3.90
2022-10-04T21:20:03.321Z,3.80
2022-10-04T21:22:34.732Z,4.40
2022-10-04T21:25:03.431Z,4.70
2022-10-04T21:27:32.131Z,3.75
2022-10-04T21:29:59.930Z,3.50
2022-10-04T21:32:28.386Z,3.33
2022-10-04T21:34:55.683Z,2.25
2022-10-04T21:37:22.981Z,2.50
2022-10-04T21:39:50.247Z,2.33
2022-10-04T21:42:17.582Z,2.92
2022-10-04T21:44:45.264Z,3.10
2022-10-04T21:47:12.551Z,3.25
2022-10-04T21:49:40.118Z,3.75
2022-10-04T21:52:07.749Z,3.90
2022-10-04T21:54:35.372Z,4.25
2022-10-04T21:57:02.660Z,4.15
2022-10-04T21:59:29.943Z,4.43
2022-10-04T22:01:57.311Z,4.30
2022-10-04T22:04:24.650Z,4.57
2022-10-04T22:06:51.951Z,3.65
2022-10-04T22:09:19.230Z,4.43
2022-10-04T22:11:46.435Z,4.15
2022-10-04T22:14:13.914Z,3.60
2022-10-04T22:16:41.752Z,3.60
2022-10-04T22:19:09.082Z,4.25
2022-10-04T22:21:36.390Z,3.85
2022-10-04T22:24:04.175Z,3.58
2022-10-04T22:26:32.581Z,4.00
2022-10-04T22:28:59.973Z,3.80
2022-10-04T22:31:28.235Z,4.03
2022-10-04T22:33:56.081Z,3.40
2022-10-04T22:36:32.416Z,3.53
2022-10-04T22:39:01.360Z,3.35
2022-10-04T22:41:39.971Z,3.60
2022-10-04T22:44:16.031Z,3.17
2022-10-04T22:46:44.764Z,2.90
2022-10-04T22:49:20.287Z,2.92
2022-10-04T22:51:49.766Z,2.80
2022-10-04T22:54:18.565Z,3.05
2022-10-04T22:56:46.288Z,4.00
2022-10-04T22:59:14.770Z,4.80
2022-10-04T23:01:42.901Z,4.97
2022-10-04T23:04:20.135Z,5.03
2022-10-04T23:06:47.830Z,4.80
2022-10-04T23:09:15.293Z,5.68
2022-10-04T23:11:42.858Z,4.25
2022-10-04T23:14:10.198Z,4.68
2022-10-04T23:16:37.848Z,5.18
2022-10-04T23:19:11.282Z,5.82
2022-10-04T23:21:40.543Z,7.10
2022-10-04T23:24:15.805Z,6.88
2022-10-04T23:26:44.320Z,6.15
2022-10-04T23:29:18.602Z,5.20
2022-10-04T23:31:47.325Z,4.15
2022-10-04T23:34:18.267Z,3.60
2022-10-04T23:36:46.488Z,3.85
2022-10-04T23:39:18.057Z,3.20
2022-10-04T23:41:45.676Z,3.55
2022-10-04T23:44:14.175Z,3.50
2022-10-04T23:46:41.492Z,3.30
2022-10-04T23:49:14.028Z,3.33
2022-10-04T23:51:41.352Z,3.72
2022-10-04T23:54:13.247Z,3.10
2022-10-04T23:56:41.446Z,3.03
2022-10-04T23:59:13.613Z,2.40
